Time;durP1;ratioP1;P1;durP2;ratioP2;P2;SDS_P1;SDS_P2;PMS_P1;PMS_P2;Temp;Humidity;BMP_temperature;BMP_pressure;BME280_temperature;BME280_humidity;BME280_pressure;Samples;Min_cycle;Max_cycle;Signal;HPM_P1;HPM_P2
2022/04/26 03:40:22;;;;;;;4.05;0.93;;;9.20;99.90;;;;;;20858626;28;20055;-81
2022/04/26 03:50:24;;;;;;;3.65;1.23;;;9.20;99.90;;;;;;20848617;28;20044;-81
2022/04/26 04:00:26;;;;;;;2.22;1.33;;;9.30;99.90;;;;;;20833839;28;20075;-80
2022/04/26 04:10:27;;;;;;;6.53;1.80;;;9.30;99.90;;;;;;20833998;28;20671;-80
2022/04/26 04:20:29;;;;;;;2.60;1.27;;;9.20;99.90;;;;;;20843662;28;20049;-80
2022/04/26 04:30:30;;;;;;;2.08;1.08;;;9.20;99.90;;;;;;20845832;28;20044;-80
2022/04/26 04:40:32;;;;;;;4.93;1.50;;;9.20;99.90;;;;;;20849809;28;20048;-81
2022/04/26 04:50:33;;;;;;;3.60;1.67;;;9.20;99.90;;;;;;20850809;28;20029;-80
2022/04/26 05:00:34;;;;;;;2.75;0.88;;;9.10;99.90;;;;;;20858220;28;20610;-81
2022/04/26 05:10:36;;;;;;;2.00;1.08;;;9.20;99.90;;;;;;20865333;28;20036;-81
2022/04/26 05:20:38;;;;;;;3.13;1.27;;;9.20;99.90;;;;;;20860220;28;20041;-81
2022/04/26 05:30:39;;;;;;;3.33;0.93;;;9.30;99.90;;;;;;20846303;28;20044;-80
2022/04/26 05:40:41;;;;;;;3.35;1.38;;;9.30;99.90;;;;;;20863726;28;20045;-80
2022/04/26 05:50:42;;;;;;;4.13;1.00;;;9.30;99.90;;;;;;20875901;28;20037;-81
2022/04/26 06:00:43;;;;;;;1.98;0.70;;;9.40;99.90;;;;;;20832811;28;20389;-81
2022/04/26 06:10:44;;;;;;;2.30;0.93;;;9.30;99.90;;;;;;20843464;28;20032;-81
2022/04/26 06:20:45;;;;;;;3.63;1.00;;;9.40;99.90;;;;;;20839850;28;20045;-81
2022/04/26 06:30:46;;;;;;;2.25;1.10;;;9.40;99.90;;;;;;20837675;28;20063;-80
2022/04/26 06:40:47;;;;;;;2.00;0.88;;;9.40;99.90;;;;;;20848677;28;20033;-81
2022/04/26 06:50:49;;;;;;;3.75;1.13;;;9.20;99.90;;;;;;20814762;28;20044;-81
2022/04/26 07:00:50;;;;;;;3.83;1.02;;;9.30;99.90;;;;;;20843113;28;20041;-80
2022/04/26 07:10:51;;;;;;;6.93;1.30;;;9.20;99.90;;;;;;20842528;28;20048;-81
2022/04/26 07:20:52;;;;;;;1.65;1.10;;;9.30;99.90;;;;;;20830019;28;20515;-80
2022/04/26 07:30:53;;;;;;;2.20;1.05;;;9.30;99.90;;;;;;20838981;28;20504;-80
2022/04/26 07:40:55;;;;;;;4.05;0.88;;;9.60;99.90;;;;;;20812401;28;20440;-80
2022/04/26 07:50:56;;;;;;;3.55;0.90;;;10.00;99.90;;;;;;20837836;28;20052;-79
2022/04/26 08:00:57;;;;;;;3.88;1.02;;;10.30;99.90;;;;;;20862103;28;20040;-80
2022/04/26 08:11:00;;;;;;;1.85;0.90;;;10.60;99.90;;;;;;20837560;28;20037;-80
2022/04/26 08:21:01;;;;;;;2.20;1.13;;;10.60;99.90;;;;;;20794688;28;20052;-81
2022/04/26 08:31:05;;;;;;;2.17;1.00;;;10.90;99.90;;;;;;20827364;28;20384;-82
2022/04/26 08:41:06;;;;;;;2.97;0.68;;;11.10;99.90;;;;;;20837027;28;20045;-81
2022/04/26 08:51:09;;;;;;;2.47;1.20;;;11.40;99.90;;;;;;20841945;28;20515;-80
2022/04/26 09:01:24;;;;;;;3.05;0.80;;;11.60;99.90;;;;;;20867740;28;20045;-82
2022/04/26 09:11:32;;;;;;;2.33;1.15;;;11.90;99.90;;;;;;20903480;28;20036;-82
2022/04/26 09:21:35;;;;;;;2.00;0.90;;;12.20;99.90;;;;;;20894716;28;20036;-81
2022/04/26 09:31:38;;;;;;;1.73;0.82;;;12.40;99.90;;;;;;20874412;28;20512;-81
2022/04/26 09:41:48;;;;;;;2.25;0.70;;;12.50;99.90;;;;;;20902711;28;20045;-81
2022/04/26 09:51:54;;;;;;;2.72;0.98;;;12.70;99.90;;;;;;20868285;28;20029;-81
2022/04/26 10:01:57;;;;;;;3.97;2.38;;;12.80;99.90;;;;;;20872501;28;20037;-82
2022/04/26 10:12:01;;;;;;;5.78;0.77;;;12.80;99.90;;;;;;20852649;28;20033;-82
2022/04/26 10:22:03;;;;;;;1.70;0.82;;;13.00;99.90;;;;;;20857784;28;20045;-82
2022/04/26 10:32:06;;;;;;;1.70;0.90;;;13.40;99.90;;;;;;20879046;28;20040;-82
2022/04/26 10:42:13;;;;;;;2.70;1.08;;;13.50;99.90;;;;;;20865501;28;20045;-82
2022/04/26 10:52:18;;;;;;;1.27;0.67;;;13.60;99.90;;;;;;20903298;28;20056;-82
2022/04/26 11:02:21;;;;;;;1.33;0.77;;;13.60;99.90;;;;;;20895288;28;20108;-82
2022/04/26 11:12:24;;;;;;;1.88;0.82;;;13.80;99.90;;;;;;20888082;28;20191;-83
2022/04/26 11:22:27;;;;;;;4.72;0.70;;;14.00;99.90;;;;;;20882310;28;20059;-82
2022/04/26 11:32:38;;;;;;;1.50;0.60;;;14.50;99.90;;;;;;20873479;28;20140;-81
2022/04/26 11:42:39;;;;;;;1.55;0.55;;;14.40;99.90;;;;;;20896389;28;20129;-82
2022/04/26 11:52:45;;;;;;;1.83;0.60;;;14.80;99.90;;;;;;20883813;28;20037;-81
2022/04/26 12:02:48;;;;;;;3.65;0.90;;;14.60;99.90;;;;;;20883650;28;20039;-82
2022/04/26 12:13:03;;;;;;;10.93;1.00;;;14.90;99.90;;;;;;20867940;28;20025;-82
2022/04/26 12:23:06;;;;;;;2.35;0.90;;;14.90;99.90;;;;;;20829805;28;20472;-82
2022/04/26 12:33:07;;;;;;;1.05;0.50;;;15.30;99.90;;;;;;20838301;28;20064;-82
2022/04/26 12:43:28;;;;;;;1.70;0.40;;;15.50;99.90;;;;;;20845756;28;20034;-82
2022/04/26 12:53:32;;;;;;;1.60;0.63;;;15.70;97.80;;;;;;20854698;28;20051;-82
2022/04/26 13:03:35;;;;;;;4.70;0.90;;;15.70;99.10;;;;;;20881402;28;20034;-82
2022/04/26 13:13:41;;;;;;;1.48;0.55;;;15.90;98.90;;;;;;20869166;28;20028;-82
2022/04/26 13:23:43;;;;;;;1.40;0.65;;;16.00;99.00;;;;;;20875450;28;20025;-81
2022/04/26 13:33:45;;;;;;;1.42;0.70;;;16.40;98.20;;;;;;20892791;28;20041;-83
2022/04/26 13:43:48;;;;;;;3.45;0.80;;;16.20;98.60;;;;;;20866404;28;20036;-82
2022/04/26 13:53:49;;;;;;;2.78;0.70;;;16.40;97.30;;;;;;20867490;28;20189;-83
2022/04/26 14:03:51;;;;;;;2.72;1.00;;;16.10;99.20;;;;;;20890380;28;20620;-82
2022/04/26 14:24:12;;;;;;;1.40;0.60;;;15.10;99.90;;;;;;20885592;28;21393;-82
2022/04/26 14:34:14;;;;;;;1.92;1.02;;;14.80;99.90;;;;;;20855043;28;20512;-82
2022/04/26 14:44:15;;;;;;;4.72;0.90;;;14.40;99.90;;;;;;20881749;28;20500;-81
2022/04/26 14:54:17;;;;;;;1.58;0.80;;;13.80;99.90;;;;;;20886780;28;20415;-81
2022/04/26 15:04:21;;;;;;;4.07;0.90;;;13.50;99.90;;;;;;20894053;28;20068;-81
2022/04/26 15:24:43;;;;;;;2.70;0.68;;;13.60;99.90;;;;;;20888089;28;20508;-81
2022/04/26 15:34:44;;;;;;;1.52;0.60;;;13.60;99.90;;;;;;20873651;28;20034;-81
2022/04/26 15:44:46;;;;;;;2.20;0.93;;;13.50;99.90;;;;;;20900187;28;20029;-81
2022/04/26 15:54:47;;;;;;;0.85;0.55;;;13.30;99.90;;;;;;20884722;28;20152;-80
2022/04/26 16:04:48;;;;;;;2.00;0.90;;;13.40;99.90;;;;;;20892963;28;20072;-81
2022/04/26 16:25:09;;;;;;;2.55;0.73;;;12.70;99.90;;;;;;20893715;28;20478;-84
2022/04/26 16:35:12;;;;;;;9.35;1.00;;;12.60;99.90;;;;;;20894889;28;20048;-80
2022/04/26 16:45:13;;;;;;;3.75;0.88;;;12.50;99.90;;;;;;20887338;28;20488;-82
2022/04/26 16:55:15;;;;;;;2.17;0.50;;;12.50;99.90;;;;;;20869574;28;20303;-80
2022/04/26 17:05:19;;;;;;;1.20;0.65;;;12.40;99.90;;;;;;20895410;28;20033;-80
2022/04/26 17:15:22;;;;;;;1.50;0.90;;;12.30;99.90;;;;;;20898119;28;20051;-81
2022/04/26 17:25:23;;;;;;;2.40;0.50;;;12.20;99.90;;;;;;20884143;28;20216;-80
2022/04/26 17:35:26;;;;;;;1.75;0.60;;;11.90;99.90;;;;;;20882443;28;20041;-80
2022/04/26 17:45:29;;;;;;;1.48;0.60;;;11.80;99.90;;;;;;20872678;28;20037;-80
2022/04/26 18:05:50;;;;;;;3.90;1.30;;;11.50;99.90;;;;;;20840951;28;20051;-81
2022/04/26 18:15:54;;;;;;;1.48;0.80;;;11.40;99.90;;;;;;20845366;28;20048;-80
2022/04/26 18:26:11;;;;;;;1.83;0.77;;;11.40;99.90;;;;;;20856171;28;20598;-80
2022/04/26 18:36:15;;;;;;;2.45;0.88;;;11.30;99.90;;;;;;20870941;28;20400;-80
2022/04/26 18:46:19;;;;;;;1.95;0.95;;;11.10;99.90;;;;;;20848916;28;20132;-80
2022/04/26 18:56:20;;;;;;;2.17;1.02;;;10.80;99.90;;;;;;20849696;28;20036;-80
2022/04/26 19:06:22;;;;;;;2.17;0.90;;;10.70;99.90;;;;;;20853246;28;20037;-80
2022/04/26 19:16:25;;;;;;;1.50;0.80;;;10.50;99.90;;;;;;20837214;28;20051;-80
2022/04/26 19:26:26;;;;;;;2.25;1.02;;;10.50;99.90;;;;;;20867122;28;20044;-81
2022/04/26 19:36:27;;;;;;;4.65;1.77;;;10.40;99.90;;;;;;20868014;28;20308;-80
2022/04/26 19:46:28;;;;;;;1.90;0.95;;;10.30;99.90;;;;;;20876594;28;20405;-80
2022/04/26 19:56:30;;;;;;;4.50;1.70;;;10.10;99.90;;;;;;20846923;28;20041;-80
2022/04/26 20:06:32;;;;;;;2.22;1.13;;;10.00;99.90;;;;;;20866817;28;20799;-81
2022/04/26 20:16:33;;;;;;;2.47;1.13;;;10.00;99.90;;;;;;20849251;28;20045;-81
2022/04/26 20:36:53;;;;;;;1.67;0.90;;;9.90;99.90;;;;;;20903122;28;20104;-80
2022/04/26 20:46:55;;;;;;;3.03;1.35;;;9.60;99.90;;;;;;20872289;28;20380;-80
2022/04/26 20:56:57;;;;;;;3.45;1.00;;;9.30;99.90;;;;;;20878205;28;20057;-81
2022/04/26 21:07:00;;;;;;;2.42;1.00;;;9.20;99.90;;;;;;20879088;28;20035;-81
2022/04/26 21:17:01;;;;;;;2.65;1.45;;;8.90;99.90;;;;;;20906969;28;20703;-81
2022/04/26 21:27:04;;;;;;;3.85;0.57;;;8.70;99.90;;;;;;20895024;28;20048;-81
2022/04/26 21:37:06;;;;;;;1.88;1.15;;;8.70;99.90;;;;;;20912064;28;20075;-81
2022/04/26 21:47:07;;;;;;;3.15;1.58;;;8.60;99.90;;;;;;20881517;28;20052;-81
2022/04/26 21:57:10;;;;;;;1.70;0.80;;;8.40;99.90;;;;;;20884224;28;20037;-80
2022/04/26 22:07:12;;;;;;;3.45;1.20;;;8.20;99.90;;;;;;20877249;28;20044;-82
2022/04/26 22:17:13;;;;;;;2.95;0.70;;;8.00;99.90;;;;;;20866354;28;20056;-82
2022/04/26 22:27:14;;;;;;;2.50;1.23;;;7.80;99.90;;;;;;20903966;28;20056;-82
2022/04/26 22:37:16;;;;;;;5.60;1.67;;;7.80;99.90;;;;;;20883720;28;20037;-82
2022/04/26 22:47:17;;;;;;;3.28;1.48;;;7.80;99.90;;;;;;20887074;28;20033;-82
2022/04/26 22:57:18;;;;;;;3.67;1.75;;;7.70;99.90;;;;;;20884496;28;20044;-82
2022/04/26 23:07:19;;;;;;;4.53;1.95;;;7.50;99.90;;;;;;20886363;28;20051;-82
2022/04/26 23:17:20;;;;;;;3.40;1.83;;;7.40;99.90;;;;;;20886369;28;20051;-82
2022/04/26 23:27:21;;;;;;;3.00;1.27;;;7.20;99.90;;;;;;20863601;28;21508;-82
2022/04/26 23:37:22;;;;;;;3.88;1.00;;;7.30;99.90;;;;;;20865986;28;20052;-82
2022/04/26 23:47:24;;;;;;;2.78;1.40;;;7.30;99.90;;;;;;20880401;28;20042;-82
2022/04/26 23:57:25;;;;;;;9.43;1.98;;;7.30;99.90;;;;;;20865491;28;20056;-82
